sensor_id;sensor_type;location;lat;lon;timestamp;P1;durP1;ratioP1;P2;durP2;ratioP2
12921;SDS011;6528;48.086;16.282;2023-04-03T00:00:40;1.43;;;1.33;;
12921;SDS011;6528;48.086;16.282;2023-04-03T00:03:07;1.40;;;1.30;;
12921;SDS011;6528;48.086;16.282;2023-04-03T00:05:34;1.30;;;1.30;;
12921;SDS011;6528;48.086;16.282;2023-04-03T00:08:01;1.27;;;1.27;;
12921;SDS011;6528;48.086;16.282;2023-04-03T00:10:28;1.57;;;1.47;;
12921;SDS011;6528;48.086;16.282;2023-04-03T00:12:55;1.13;;;1.13;;
12921;SDS011;6528;48.086;16.282;2023-04-03T00:15:22;1.17;;;1.10;;
12921;SDS011;6528;48.086;16.282;2023-04-03T00:17:49;1.30;;;1.20;;
12921;SDS011;6528;48.086;16.282;2023-04-03T00:20:16;1.20;;;1.17;;
12921;SDS011;6528;48.086;16.282;2023-04-03T00:22:43;1.37;;;1.37;;
12921;SDS011;6528;48.086;16.282;2023-04-03T00:25:09;1.80;;;1.70;;
12921;SDS011;6528;48.086;16.282;2023-04-03T00:27:39;1.57;;;1.47;;
12921;SDS011;6528;48.086;16.282;2023-04-03T00:30:07;1.60;;;1.37;;
12921;SDS011;6528;48.086;16.282;2023-04-03T00:32:36;1.37;;;1.30;;
12921;SDS011;6528;48.086;16.282;2023-04-03T00:35:03;1.17;;;1.17;;
12921;SDS011;6528;48.086;16.282;2023-04-03T00:37:31;1.30;;;1.20;;
12921;SDS011;6528;48.086;16.282;2023-04-03T00:39:58;1.37;;;1.27;;
12921;SDS011;6528;48.086;16.282;2023-04-03T00:42:25;1.03;;;1.00;;
12921;SDS011;6528;48.086;16.282;2023-04-03T00:47:19;1.90;;;1.80;;
12921;SDS011;6528;48.086;16.282;2023-04-03T00:49:45;1.73;;;1.30;;
12921;SDS011;6528;48.086;16.282;2023-04-03T00:52:13;1.20;;;1.20;;
12921;SDS011;6528;48.086;16.282;2023-04-03T00:54:44;1.43;;;1.33;;
12921;SDS011;6528;48.086;16.282;2023-04-03T00:57:14;1.40;;;1.30;;
12921;SDS011;6528;48.086;16.282;2023-04-03T00:59:43;1.00;;;1.00;;
12921;SDS011;6528;48.086;16.282;2023-04-03T01:02:12;1.10;;;1.10;;
12921;SDS011;6528;48.086;16.282;2023-04-03T01:04:40;1.20;;;1.10;;
12921;SDS011;6528;48.086;16.282;2023-04-03T01:09:37;1.13;;;1.13;;
12921;SDS011;6528;48.086;16.282;2023-04-03T01:12:15;1.30;;;1.20;;
12921;SDS011;6528;48.086;16.282;2023-04-03T01:14:46;1.60;;;1.50;;
12921;SDS011;6528;48.086;16.282;2023-04-03T01:22:46;1.23;;;1.17;;
12921;SDS011;6528;48.086;16.282;2023-04-03T01:25:23;1.10;;;1.00;;
12921;SDS011;6528;48.086;16.282;2023-04-03T01:27:50;1.27;;;1.17;;
12921;SDS011;6528;48.086;16.282;2023-04-03T01:30:18;1.50;;;1.40;;
12921;SDS011;6528;48.086;16.282;2023-04-03T01:32:46;1.17;;;1.17;;
12921;SDS011;6528;48.086;16.282;2023-04-03T01:35:13;1.20;;;1.10;;
12921;SDS011;6528;48.086;16.282;2023-04-03T01:37:39;0.90;;;0.90;;
12921;SDS011;6528;48.086;16.282;2023-04-03T01:40:06;1.17;;;1.17;;
12921;SDS011;6528;48.086;16.282;2023-04-03T01:42:34;1.27;;;1.17;;
12921;SDS011;6528;48.086;16.282;2023-04-03T01:45:01;1.50;;;1.23;;
12921;SDS011;6528;48.086;16.282;2023-04-03T01:47:28;1.40;;;1.30;;
12921;SDS011;6528;48.086;16.282;2023-04-03T01:49:54;1.30;;;1.20;;
12921;SDS011;6528;48.086;16.282;2023-04-03T01:52:21;1.57;;;1.47;;
12921;SDS011;6528;48.086;16.282;2023-04-03T01:54:48;1.27;;;1.17;;
12921;SDS011;6528;48.086;16.282;2023-04-03T01:57:15;1.20;;;1.20;;
12921;SDS011;6528;48.086;16.282;2023-04-03T01:59:42;1.13;;;1.13;;
12921;SDS011;6528;48.086;16.282;2023-04-03T02:02:09;1.27;;;1.23;;
12921;SDS011;6528;48.086;16.282;2023-04-03T02:04:36;1.30;;;1.20;;
12921;SDS011;6528;48.086;16.282;2023-04-03T02:07:02;1.17;;;1.03;;
12921;SDS011;6528;48.086;16.282;2023-04-03T02:09:29;1.07;;;0.97;;
12921;SDS011;6528;48.086;16.282;2023-04-03T02:11:56;0.90;;;0.90;;
12921;SDS011;6528;48.086;16.282;2023-04-03T02:14:23;1.30;;;1.20;;
12921;SDS011;6528;48.086;16.282;2023-04-03T02:16:50;2.13;;;1.33;;
12921;SDS011;6528;48.086;16.282;2023-04-03T02:19:17;1.40;;;1.30;;
12921;SDS011;6528;48.086;16.282;2023-04-03T02:21:43;1.47;;;1.37;;
12921;SDS011;6528;48.086;16.282;2023-04-03T02:24:10;1.40;;;1.30;;
12921;SDS011;6528;48.086;16.282;2023-04-03T02:26:37;1.03;;;1.00;;
12921;SDS011;6528;48.086;16.282;2023-04-03T02:29:04;1.40;;;1.30;;
12921;SDS011;6528;48.086;16.282;2023-04-03T02:31:31;1.70;;;0.80;;
12921;SDS011;6528;48.086;16.282;2023-04-03T02:33:57;1.27;;;1.20;;
12921;SDS011;6528;48.086;16.282;2023-04-03T02:36:24;1.10;;;1.10;;
12921;SDS011;6528;48.086;16.282;2023-04-03T02:38:51;1.37;;;1.27;;
12921;SDS011;6528;48.086;16.282;2023-04-03T02:41:18;1.20;;;1.20;;
12921;SDS011;6528;48.086;16.282;2023-04-03T02:43:45;1.00;;;1.00;;
12921;SDS011;6528;48.086;16.282;2023-04-03T02:46:11;1.03;;;1.03;;
12921;SDS011;6528;48.086;16.282;2023-04-03T02:48:41;1.17;;;1.13;;
12921;SDS011;6528;48.086;16.282;2023-04-03T02:51:08;1.40;;;1.33;;
12921;SDS011;6528;48.086;16.282;2023-04-03T02:53:34;0.90;;;0.90;;
12921;SDS011;6528;48.086;16.282;2023-04-03T02:56:01;0.90;;;0.90;;
12921;SDS011;6528;48.086;16.282;2023-04-03T02:58:28;1.33;;;1.23;;
12921;SDS011;6528;48.086;16.282;2023-04-03T03:00:55;1.57;;;1.47;;
12921;SDS011;6528;48.086;16.282;2023-04-03T03:03:21;0.90;;;0.90;;
12921;SDS011;6528;48.086;16.282;2023-04-03T03:05:49;1.37;;;1.27;;
12921;SDS011;6528;48.086;16.282;2023-04-03T03:08:16;1.00;;;1.00;;
12921;SDS011;6528;48.086;16.282;2023-04-03T03:10:46;1.40;;;1.30;;
12921;SDS011;6528;48.086;16.282;2023-04-03T03:13:12;1.07;;;1.03;;
12921;SDS011;6528;48.086;16.282;2023-04-03T03:15:39;1.90;;;1.10;;
12921;SDS011;6528;48.086;16.282;2023-04-03T03:18:06;0.93;;;0.93;;
12921;SDS011;6528;48.086;16.282;2023-04-03T03:20:33;1.50;;;1.40;;
12921;SDS011;6528;48.086;16.282;2023-04-03T03:23:00;1.30;;;1.20;;
12921;SDS011;6528;48.086;16.282;2023-04-03T03:25:27;1.37;;;1.27;;
12921;SDS011;6528;48.086;16.282;2023-04-03T03:27:53;1.43;;;1.33;;
12921;SDS011;6528;48.086;16.282;2023-04-03T03:30:20;1.47;;;1.37;;
12921;SDS011;6528;48.086;16.282;2023-04-03T03:32:47;1.47;;;1.37;;
12921;SDS011;6528;48.086;16.282;2023-04-03T03:35:14;1.30;;;1.20;;
12921;SDS011;6528;48.086;16.282;2023-04-03T03:37:41;1.20;;;1.10;;
12921;SDS011;6528;48.086;16.282;2023-04-03T03:40:08;0.90;;;0.90;;
12921;SDS011;6528;48.086;16.282;2023-04-03T03:42:37;1.20;;;1.10;;
12921;SDS011;6528;48.086;16.282;2023-04-03T03:45:04;1.40;;;1.30;;
12921;SDS011;6528;48.086;16.282;2023-04-03T03:47:31;1.40;;;1.17;;
12921;SDS011;6528;48.086;16.282;2023-04-03T03:49:58;1.43;;;1.33;;
12921;SDS011;6528;48.086;16.282;2023-04-03T03:52:25;1.13;;;1.10;;
12921;SDS011;6528;48.086;16.282;2023-04-03T03:54:52;1.43;;;1.33;;
12921;SDS011;6528;48.086;16.282;2023-04-03T03:57:19;1.00;;;1.00;;
12921;SDS011;6528;48.086;16.282;2023-04-03T03:59:46;1.27;;;1.17;;
12921;SDS011;6528;48.086;16.282;2023-04-03T04:02:14;0.93;;;0.93;;
12921;SDS011;6528;48.086;16.282;2023-04-03T04:04:42;1.20;;;1.07;;
12921;SDS011;6528;48.086;16.282;2023-04-03T04:07:09;1.10;;;1.00;;
12921;SDS011;6528;48.086;16.282;2023-04-03T04:09:36;1.20;;;1.10;;
12921;SDS011;6528;48.086;16.282;2023-04-03T04:12:03;1.37;;;1.27;;
12921;SDS011;6528;48.086;16.282;2023-04-03T04:14:29;1.50;;;1.10;;
12921;SDS011;6528;48.086;16.282;2023-04-03T04:16:56;1.37;;;1.30;;
12921;SDS011;6528;48.086;16.282;2023-04-03T04:19:23;1.43;;;1.33;;
12921;SDS011;6528;48.086;16.282;2023-04-03T04:21:50;1.70;;;1.50;;
12921;SDS011;6528;48.086;16.282;2023-04-03T04:24:17;1.30;;;1.20;;
12921;SDS011;6528;48.086;16.282;2023-04-03T04:26:43;2.00;;;1.47;;
12921;SDS011;6528;48.086;16.282;2023-04-03T04:29:10;1.27;;;1.27;;
12921;SDS011;6528;48.086;16.282;2023-04-03T04:31:37;1.53;;;1.43;;
12921;SDS011;6528;48.086;16.282;2023-04-03T04:34:04;1.20;;;1.20;;
12921;SDS011;6528;48.086;16.282;2023-04-03T04:36:31;1.40;;;1.30;;
12921;SDS011;6528;48.086;16.282;2023-04-03T04:38:58;1.40;;;1.30;;
12921;SDS011;6528;48.086;16.282;2023-04-03T04:41:25;1.20;;;1.20;;
12921;SDS011;6528;48.086;16.282;2023-04-03T04:43:52;1.20;;;1.10;;
12921;SDS011;6528;48.086;16.282;2023-04-03T04:46:19;2.00;;;1.40;;
12921;SDS011;6528;48.086;16.282;2023-04-03T04:48:46;1.00;;;1.00;;
12921;SDS011;6528;48.086;16.282;2023-04-03T04:51:12;1.37;;;1.27;;
12921;SDS011;6528;48.086;16.282;2023-04-03T04:53:39;1.60;;;1.50;;
12921;SDS011;6528;48.086;16.282;2023-04-03T04:56:06;1.47;;;1.37;;
12921;SDS011;6528;48.086;16.282;2023-04-03T04:58:33;1.80;;;1.70;;
12921;SDS011;6528;48.086;16.282;2023-04-03T05:01:07;1.33;;;1.20;;
12921;SDS011;6528;48.086;16.282;2023-04-03T05:03:36;1.13;;;1.03;;
12921;SDS011;6528;48.086;16.282;2023-04-03T05:06:03;1.67;;;1.57;;
12921;SDS011;6528;48.086;16.282;2023-04-03T05:08:30;1.80;;;1.70;;
12921;SDS011;6528;48.086;16.282;2023-04-03T05:10:57;1.43;;;1.37;;
12921;SDS011;6528;48.086;16.282;2023-04-03T05:13:24;1.57;;;1.47;;
12921;SDS011;6528;48.086;16.282;2023-04-03T05:15:51;1.63;;;1.53;;
12921;SDS011;6528;48.086;16.282;2023-04-03T05:18:18;1.30;;;1.20;;
12921;SDS011;6528;48.086;16.282;2023-04-03T05:20:45;1.50;;;1.40;;
12921;SDS011;6528;48.086;16.282;2023-04-03T05:23:16;1.30;;;1.20;;
12921;SDS011;6528;48.086;16.282;2023-04-03T05:25:43;1.73;;;1.63;;
12921;SDS011;6528;48.086;16.282;2023-04-03T05:28:11;1.20;;;1.20;;
12921;SDS011;6528;48.086;16.282;2023-04-03T05:30:38;1.63;;;1.53;;
12921;SDS011;6528;48.086;16.282;2023-04-03T05:33:04;1.30;;;1.27;;
12921;SDS011;6528;48.086;16.282;2023-04-03T05:35:32;1.43;;;1.37;;
12921;SDS011;6528;48.086;16.282;2023-04-03T05:37:59;1.93;;;1.47;;
12921;SDS011;6528;48.086;16.282;2023-04-03T05:40:26;1.87;;;1.70;;
12921;SDS011;6528;48.086;16.282;2023-04-03T05:42:53;2.53;;;2.33;;
12921;SDS011;6528;48.086;16.282;2023-04-03T05:45:19;2.40;;;2.20;;
12921;SDS011;6528;48.086;16.282;2023-04-03T05:47:46;2.57;;;2.40;;
12921;SDS011;6528;48.086;16.282;2023-04-03T05:50:13;3.77;;;2.63;;
12921;SDS011;6528;48.086;16.282;2023-04-03T05:52:42;3.20;;;2.90;;
12921;SDS011;6528;48.086;16.282;2023-04-03T05:55:11;2.63;;;2.43;;
12921;SDS011;6528;48.086;16.282;2023-04-03T05:57:38;3.60;;;2.70;;
12921;SDS011;6528;48.086;16.282;2023-04-03T06:00:05;2.60;;;2.40;;
12921;SDS011;6528;48.086;16.282;2023-04-03T06:02:35;3.20;;;2.90;;
12921;SDS011;6528;48.086;16.282;2023-04-03T06:05:02;2.87;;;2.67;;
12921;SDS011;6528;48.086;16.282;2023-04-03T06:07:30;3.27;;;2.60;;
12921;SDS011;6528;48.086;16.282;2023-04-03T06:09:57;2.43;;;2.23;;
12921;SDS011;6528;48.086;16.282;2023-04-03T06:12:24;3.13;;;2.93;;
12921;SDS011;6528;48.086;16.282;2023-04-03T06:14:51;3.03;;;2.83;;
12921;SDS011;6528;48.086;16.282;2023-04-03T06:17:18;3.40;;;2.70;;
12921;SDS011;6528;48.086;16.282;2023-04-03T06:19:45;2.23;;;2.10;;
12921;SDS011;6528;48.086;16.282;2023-04-03T06:22:12;3.23;;;2.70;;
12921;SDS011;6528;48.086;16.282;2023-04-03T06:24:40;3.00;;;2.73;;
12921;SDS011;6528;48.086;16.282;2023-04-03T06:27:07;3.23;;;2.93;;
12921;SDS011;6528;48.086;16.282;2023-04-03T06:29:33;3.23;;;3.03;;
12921;SDS011;6528;48.086;16.282;2023-04-03T06:32:00;3.03;;;2.77;;
12921;SDS011;6528;48.086;16.282;2023-04-03T06:34:27;3.40;;;3.10;;
12921;SDS011;6528;48.086;16.282;2023-04-03T06:36:54;2.67;;;2.40;;
12921;SDS011;6528;48.086;16.282;2023-04-03T06:39:21;3.20;;;2.77;;
12921;SDS011;6528;48.086;16.282;2023-04-03T06:41:51;5.30;;;3.43;;
12921;SDS011;6528;48.086;16.282;2023-04-03T06:44:18;2.60;;;2.40;;
12921;SDS011;6528;48.086;16.282;2023-04-03T06:46:45;2.73;;;2.47;;
12921;SDS011;6528;48.086;16.282;2023-04-03T06:49:12;2.70;;;2.40;;
12921;SDS011;6528;48.086;16.282;2023-04-03T06:51:39;4.97;;;2.77;;
12921;SDS011;6528;48.086;16.282;2023-04-03T06:54:06;2.60;;;1.90;;
12921;SDS011;6528;48.086;16.282;2023-04-03T06:56:34;4.10;;;2.93;;
12921;SDS011;6528;48.086;16.282;2023-04-03T06:59:02;3.13;;;2.93;;
12921;SDS011;6528;48.086;16.282;2023-04-03T07:01:29;3.17;;;2.37;;
12921;SDS011;6528;48.086;16.282;2023-04-03T07:03:56;2.73;;;2.53;;
12921;SDS011;6528;48.086;16.282;2023-04-03T07:06:24;4.27;;;2.70;;
12921;SDS011;6528;48.086;16.282;2023-04-03T07:08:53;3.10;;;2.80;;
12921;SDS011;6528;48.086;16.282;2023-04-03T07:11:20;3.27;;;2.97;;
12921;SDS011;6528;48.086;16.282;2023-04-03T07:13:47;3.20;;;2.60;;
12921;SDS011;6528;48.086;16.282;2023-04-03T07:16:14;3.30;;;2.80;;
12921;SDS011;6528;48.086;16.282;2023-04-03T07:18:41;3.37;;;2.43;;
12921;SDS011;6528;48.086;16.282;2023-04-03T07:21:08;2.80;;;2.23;;
12921;SDS011;6528;48.086;16.282;2023-04-03T07:23:35;3.40;;;2.90;;
12921;SDS011;6528;48.086;16.282;2023-04-03T07:26:01;4.27;;;2.40;;
12921;SDS011;6528;48.086;16.282;2023-04-03T07:28:28;2.93;;;2.43;;
12921;SDS011;6528;48.086;16.282;2023-04-03T07:31:03;3.90;;;3.20;;
12921;SDS011;6528;48.086;16.282;2023-04-03T07:33:34;3.20;;;2.87;;
12921;SDS011;6528;48.086;16.282;2023-04-03T07:36:02;3.40;;;2.63;;
12921;SDS011;6528;48.086;16.282;2023-04-03T07:38:29;3.03;;;2.73;;
12921;SDS011;6528;48.086;16.282;2023-04-03T07:40:56;2.80;;;2.60;;
12921;SDS011;6528;48.086;16.282;2023-04-03T07:43:23;3.87;;;2.60;;
12921;SDS011;6528;48.086;16.282;2023-04-03T07:45:51;3.70;;;3.40;;
12921;SDS011;6528;48.086;16.282;2023-04-03T07:48:19;2.90;;;2.30;;
12921;SDS011;6528;48.086;16.282;2023-04-03T07:50:47;2.70;;;2.37;;
12921;SDS011;6528;48.086;16.282;2023-04-03T07:53:14;4.10;;;3.13;;
12921;SDS011;6528;48.086;16.282;2023-04-03T07:55:41;3.63;;;2.70;;
12921;SDS011;6528;48.086;16.282;2023-04-03T07:58:12;2.60;;;2.40;;
12921;SDS011;6528;48.086;16.282;2023-04-03T08:00:41;2.47;;;2.30;;
12921;SDS011;6528;48.086;16.282;2023-04-03T08:03:09;2.70;;;2.30;;
12921;SDS011;6528;48.086;16.282;2023-04-03T08:05:39;2.77;;;2.57;;
12921;SDS011;6528;48.086;16.282;2023-04-03T08:08:07;4.20;;;3.90;;
12921;SDS011;6528;48.086;16.282;2023-04-03T08:10:35;3.63;;;2.60;;
12921;SDS011;6528;48.086;16.282;2023-04-03T08:13:03;4.30;;;2.70;;
12921;SDS011;6528;48.086;16.282;2023-04-03T08:15:31;5.70;;;2.70;;
12921;SDS011;6528;48.086;16.282;2023-04-03T08:17:58;3.47;;;3.17;;
12921;SDS011;6528;48.086;16.282;2023-04-03T08:20:27;2.80;;;2.60;;
12921;SDS011;6528;48.086;16.282;2023-04-03T08:22:54;4.60;;;2.40;;
12921;SDS011;6528;48.086;16.282;2023-04-03T08:25:21;2.87;;;2.37;;
12921;SDS011;6528;48.086;16.282;2023-04-03T08:27:48;2.93;;;2.60;;
12921;SDS011;6528;48.086;16.282;2023-04-03T08:30:15;2.53;;;2.33;;
12921;SDS011;6528;48.086;16.282;2023-04-03T08:32:42;3.47;;;2.70;;
12921;SDS011;6528;48.086;16.282;2023-04-03T08:35:10;3.17;;;2.60;;
12921;SDS011;6528;48.086;16.282;2023-04-03T08:37:37;3.13;;;2.83;;
12921;SDS011;6528;48.086;16.282;2023-04-03T08:40:06;2.83;;;2.50;;
12921;SDS011;6528;48.086;16.282;2023-04-03T08:45:17;2.70;;;2.50;;
12921;SDS011;6528;48.086;16.282;2023-04-03T08:47:51;2.63;;;2.37;;
12921;SDS011;6528;48.086;16.282;2023-04-03T08:50:31;2.70;;;2.50;;
12921;SDS011;6528;48.086;16.282;2023-04-03T08:53:05;2.47;;;2.23;;
12921;SDS011;6528;48.086;16.282;2023-04-03T08:55:39;2.60;;;2.40;;
12921;SDS011;6528;48.086;16.282;2023-04-03T08:58:19;2.30;;;2.03;;
12921;SDS011;6528;48.086;16.282;2023-04-03T09:00:52;2.53;;;2.30;;
12921;SDS011;6528;48.086;16.282;2023-04-03T09:03:24;2.70;;;2.37;;
12921;SDS011;6528;48.086;16.282;2023-04-03T09:06:05;2.90;;;2.70;;
12921;SDS011;6528;48.086;16.282;2023-04-03T09:08:40;4.43;;;2.40;;
12921;SDS011;6528;48.086;16.282;2023-04-03T09:11:27;2.90;;;2.07;;
12921;SDS011;6528;48.086;16.282;2023-04-03T09:14:26;2.50;;;2.30;;
12921;SDS011;6528;48.086;16.282;2023-04-03T09:20:00;2.40;;;2.13;;
12921;SDS011;6528;48.086;16.282;2023-04-03T09:22:31;2.20;;;2.00;;
12921;SDS011;6528;48.086;16.282;2023-04-03T09:27:48;2.90;;;2.60;;
12921;SDS011;6528;48.086;16.282;2023-04-03T09:30:15;2.00;;;1.90;;
12921;SDS011;6528;48.086;16.282;2023-04-03T09:32:48;2.40;;;2.20;;
12921;SDS011;6528;48.086;16.282;2023-04-03T09:35:21;2.57;;;2.37;;
12921;SDS011;6528;48.086;16.282;2023-04-03T09:40:40;2.53;;;2.33;;
12921;SDS011;6528;48.086;16.282;2023-04-03T09:45:52;2.07;;;1.97;;
12921;SDS011;6528;48.086;16.282;2023-04-03T09:48:21;3.47;;;2.77;;
12921;SDS011;6528;48.086;16.282;2023-04-03T09:53:26;3.00;;;2.47;;
12921;SDS011;6528;48.086;16.282;2023-04-03T09:55:53;3.17;;;2.57;;
12921;SDS011;6528;48.086;16.282;2023-04-03T09:58:24;2.30;;;2.13;;
12921;SDS011;6528;48.086;16.282;2023-04-03T10:06:49;3.97;;;2.53;;
12921;SDS011;6528;48.086;16.282;2023-04-03T10:12:10;2.20;;;2.00;;
12921;SDS011;6528;48.086;16.282;2023-04-03T10:14:38;2.10;;;2.00;;
12921;SDS011;6528;48.086;16.282;2023-04-03T10:25:41;4.07;;;3.00;;
12921;SDS011;6528;48.086;16.282;2023-04-03T10:36:17;3.20;;;2.90;;
12921;SDS011;6528;48.086;16.282;2023-04-03T10:44:41;2.93;;;2.47;;
12921;SDS011;6528;48.086;16.282;2023-04-03T10:47:31;2.60;;;2.40;;
12921;SDS011;6528;48.086;16.282;2023-04-03T10:50:36;2.97;;;2.77;;
12921;SDS011;6528;48.086;16.282;2023-04-03T10:56:16;5.47;;;3.20;;
12921;SDS011;6528;48.086;16.282;2023-04-03T10:58:54;3.57;;;3.00;;
12921;SDS011;6528;48.086;16.282;2023-04-03T11:01:35;3.20;;;2.97;;
12921;SDS011;6528;48.086;16.282;2023-04-03T11:04:05;3.17;;;2.87;;
12921;SDS011;6528;48.086;16.282;2023-04-03T11:06:45;4.13;;;3.10;;
12921;SDS011;6528;48.086;16.282;2023-04-03T11:11:55;4.53;;;2.20;;
12921;SDS011;6528;48.086;16.282;2023-04-03T11:14:28;2.77;;;2.50;;
12921;SDS011;6528;48.086;16.282;2023-04-03T11:17:11;2.70;;;2.50;;
12921;SDS011;6528;48.086;16.282;2023-04-03T11:19:59;2.30;;;2.10;;
12921;SDS011;6528;48.086;16.282;2023-04-03T11:25:40;2.80;;;2.60;;
12921;SDS011;6528;48.086;16.282;2023-04-03T11:28:14;2.80;;;2.50;;
12921;SDS011;6528;48.086;16.282;2023-04-03T11:36:39;3.13;;;2.30;;
12921;SDS011;6528;48.086;16.282;2023-04-03T11:39:32;3.23;;;2.37;;
12921;SDS011;6528;48.086;16.282;2023-04-03T11:42:13;2.57;;;2.37;;
12921;SDS011;6528;48.086;16.282;2023-04-03T11:44:40;2.03;;;1.83;;
12921;SDS011;6528;48.086;16.282;2023-04-03T11:47:11;4.17;;;2.30;;
12921;SDS011;6528;48.086;16.282;2023-04-03T11:50:02;2.33;;;2.10;;
12921;SDS011;6528;48.086;16.282;2023-04-03T12:08:47;2.47;;;2.13;;
12921;SDS011;6528;48.086;16.282;2023-04-03T12:11:28;2.70;;;2.50;;
12921;SDS011;6528;48.086;16.282;2023-04-03T12:16:30;2.50;;;2.30;;
12921;SDS011;6528;48.086;16.282;2023-04-03T12:37:03;2.97;;;2.70;;
12921;SDS011;6528;48.086;16.282;2023-04-03T12:47:38;3.40;;;3.10;;
12921;SDS011;6528;48.086;16.282;2023-04-03T12:50:22;3.57;;;3.00;;
12921;SDS011;6528;48.086;16.282;2023-04-03T12:53:04;3.30;;;2.63;;
12921;SDS011;6528;48.086;16.282;2023-04-03T12:55:33;3.53;;;3.00;;
12921;SDS011;6528;48.086;16.282;2023-04-03T12:58:13;3.47;;;2.70;;
12921;SDS011;6528;48.086;16.282;2023-04-03T13:00:47;3.10;;;2.80;;
12921;SDS011;6528;48.086;16.282;2023-04-03T13:03:40;3.10;;;2.80;;
12921;SDS011;6528;48.086;16.282;2023-04-03T13:06:11;3.27;;;2.97;;
12921;SDS011;6528;48.086;16.282;2023-04-03T13:08:55;3.10;;;2.83;;
12921;SDS011;6528;48.086;16.282;2023-04-03T13:11:24;3.10;;;2.90;;
12921;SDS011;6528;48.086;16.282;2023-04-03T13:13:59;3.07;;;2.77;;
12921;SDS011;6528;48.086;16.282;2023-04-03T13:16:29;3.67;;;3.30;;
12921;SDS011;6528;48.086;16.282;2023-04-03T13:18:56;4.07;;;3.63;;
12921;SDS011;6528;48.086;16.282;2023-04-03T13:21:27;3.17;;;2.87;;
12921;SDS011;6528;48.086;16.282;2023-04-03T13:23:57;3.40;;;3.10;;
12921;SDS011;6528;48.086;16.282;2023-04-03T13:26:39;3.10;;;2.90;;
12921;SDS011;6528;48.086;16.282;2023-04-03T13:29:07;3.43;;;3.13;;
12921;SDS011;6528;48.086;16.282;2023-04-03T13:32:05;3.37;;;2.73;;
12921;SDS011;6528;48.086;16.282;2023-04-03T13:34:40;2.90;;;2.70;;
12921;SDS011;6528;48.086;16.282;2023-04-03T13:42:46;2.70;;;2.50;;
12921;SDS011;6528;48.086;16.282;2023-04-03T13:45:26;4.33;;;2.43;;
12921;SDS011;6528;48.086;16.282;2023-04-03T13:48:09;3.10;;;2.90;;
12921;SDS011;6528;48.086;16.282;2023-04-03T13:50:51;2.90;;;2.63;;
12921;SDS011;6528;48.086;16.282;2023-04-03T13:53:22;2.80;;;2.60;;
12921;SDS011;6528;48.086;16.282;2023-04-03T13:55:55;3.03;;;2.83;;
12921;SDS011;6528;48.086;16.282;2023-04-03T13:58:31;2.77;;;2.57;;
12921;SDS011;6528;48.086;16.282;2023-04-03T14:03:29;3.30;;;3.00;;
12921;SDS011;6528;48.086;16.282;2023-04-03T14:06:06;3.00;;;2.70;;
12921;SDS011;6528;48.086;16.282;2023-04-03T14:08:37;2.23;;;2.13;;
12921;SDS011;6528;48.086;16.282;2023-04-03T14:11:30;2.33;;;2.17;;
12921;SDS011;6528;48.086;16.282;2023-04-03T14:14:19;2.73;;;2.53;;
12921;SDS011;6528;48.086;16.282;2023-04-03T14:16:47;2.60;;;2.40;;
12921;SDS011;6528;48.086;16.282;2023-04-03T14:19:21;2.87;;;2.67;;
12921;SDS011;6528;48.086;16.282;2023-04-03T14:21:51;3.93;;;3.30;;
12921;SDS011;6528;48.086;16.282;2023-04-03T14:24:19;4.43;;;3.50;;
12921;SDS011;6528;48.086;16.282;2023-04-03T14:26:47;7.70;;;4.57;;
12921;SDS011;6528;48.086;16.282;2023-04-03T14:29:14;8.10;;;4.90;;
12921;SDS011;6528;48.086;16.282;2023-04-03T14:31:43;10.23;;;6.30;;
12921;SDS011;6528;48.086;16.282;2023-04-03T14:34:11;12.00;;;5.33;;
12921;SDS011;6528;48.086;16.282;2023-04-03T14:36:39;10.30;;;5.97;;
12921;SDS011;6528;48.086;16.282;2023-04-03T14:39:10;11.27;;;5.70;;
12921;SDS011;6528;48.086;16.282;2023-04-03T14:41:42;11.67;;;6.93;;
12921;SDS011;6528;48.086;16.282;2023-04-03T14:44:10;10.80;;;6.10;;
12921;SDS011;6528;48.086;16.282;2023-04-03T14:46:38;13.17;;;7.10;;
12921;SDS011;6528;48.086;16.282;2023-04-03T14:49:22;16.80;;;6.60;;
12921;SDS011;6528;48.086;16.282;2023-04-03T14:51:55;13.17;;;6.13;;
12921;SDS011;6528;48.086;16.282;2023-04-03T14:54:23;12.33;;;7.47;;
12921;SDS011;6528;48.086;16.282;2023-04-03T14:56:55;15.70;;;6.70;;
12921;SDS011;6528;48.086;16.282;2023-04-03T14:59:24;8.17;;;6.40;;
12921;SDS011;6528;48.086;16.282;2023-04-03T15:01:52;11.73;;;5.90;;
12921;SDS011;6528;48.086;16.282;2023-04-03T15:04:20;10.70;;;6.27;;
12921;SDS011;6528;48.086;16.282;2023-04-03T15:06:47;14.37;;;7.23;;
12921;SDS011;6528;48.086;16.282;2023-04-03T15:09:19;13.80;;;6.30;;
12921;SDS011;6528;48.086;16.282;2023-04-03T15:11:49;12.70;;;6.70;;
12921;SDS011;6528;48.086;16.282;2023-04-03T15:14:17;16.03;;;7.07;;
12921;SDS011;6528;48.086;16.282;2023-04-03T15:17:03;11.13;;;6.97;;
12921;SDS011;6528;48.086;16.282;2023-04-03T15:19:36;13.20;;;6.27;;
12921;SDS011;6528;48.086;16.282;2023-04-03T15:22:04;16.17;;;6.93;;
12921;SDS011;6528;48.086;16.282;2023-04-03T15:24:31;9.60;;;6.43;;
12921;SDS011;6528;48.086;16.282;2023-04-03T15:26:58;9.20;;;6.03;;
12921;SDS011;6528;48.086;16.282;2023-04-03T15:29:26;12.90;;;5.67;;
12921;SDS011;6528;48.086;16.282;2023-04-03T15:31:53;9.90;;;6.60;;
12921;SDS011;6528;48.086;16.282;2023-04-03T15:34:20;12.07;;;6.23;;
12921;SDS011;6528;48.086;16.282;2023-04-03T15:36:48;11.47;;;6.80;;
12921;SDS011;6528;48.086;16.282;2023-04-03T15:39:19;10.83;;;6.13;;
12921;SDS011;6528;48.086;16.282;2023-04-03T15:41:46;10.50;;;6.23;;
12921;SDS011;6528;48.086;16.282;2023-04-03T15:44:13;11.47;;;5.87;;
12921;SDS011;6528;48.086;16.282;2023-04-03T15:46:44;10.00;;;5.93;;
12921;SDS011;6528;48.086;16.282;2023-04-03T15:49:12;10.83;;;6.60;;
12921;SDS011;6528;48.086;16.282;2023-04-03T15:51:39;9.97;;;6.37;;
12921;SDS011;6528;48.086;16.282;2023-04-03T15:54:06;11.90;;;6.17;;
12921;SDS011;6528;48.086;16.282;2023-04-03T15:56:33;8.93;;;5.87;;
12921;SDS011;6528;48.086;16.282;2023-04-03T15:59:00;10.60;;;7.00;;
12921;SDS011;6528;48.086;16.282;2023-04-03T16:01:27;10.70;;;5.70;;
12921;SDS011;6528;48.086;16.282;2023-04-03T16:03:54;7.03;;;5.70;;
12921;SDS011;6528;48.086;16.282;2023-04-03T16:06:21;7.83;;;5.53;;
12921;SDS011;6528;48.086;16.282;2023-04-03T16:08:50;8.60;;;6.17;;
12921;SDS011;6528;48.086;16.282;2023-04-03T16:11:17;7.67;;;5.30;;
12921;SDS011;6528;48.086;16.282;2023-04-03T16:13:44;9.60;;;5.10;;
12921;SDS011;6528;48.086;16.282;2023-04-03T16:16:11;8.17;;;5.80;;
12921;SDS011;6528;48.086;16.282;2023-04-03T16:18:37;6.87;;;5.00;;
12921;SDS011;6528;48.086;16.282;2023-04-03T16:21:05;7.10;;;5.70;;
12921;SDS011;6528;48.086;16.282;2023-04-03T16:23:34;8.37;;;5.23;;
12921;SDS011;6528;48.086;16.282;2023-04-03T16:26:01;7.77;;;5.43;;
12921;SDS011;6528;48.086;16.282;2023-04-03T16:28:28;8.17;;;5.10;;
12921;SDS011;6528;48.086;16.282;2023-04-03T16:30:54;9.33;;;5.87;;
12921;SDS011;6528;48.086;16.282;2023-04-03T16:33:21;7.53;;;5.17;;
12921;SDS011;6528;48.086;16.282;2023-04-03T16:35:48;7.87;;;5.07;;
12921;SDS011;6528;48.086;16.282;2023-04-03T16:38:16;6.37;;;5.13;;
12921;SDS011;6528;48.086;16.282;2023-04-03T16:40:45;6.70;;;4.43;;
12921;SDS011;6528;48.086;16.282;2023-04-03T16:43:12;8.03;;;5.30;;
12921;SDS011;6528;48.086;16.282;2023-04-03T16:45:39;6.47;;;4.93;;
12921;SDS011;6528;48.086;16.282;2023-04-03T16:48:06;6.87;;;4.10;;
12921;SDS011;6528;48.086;16.282;2023-04-03T16:50:33;5.37;;;4.50;;
12921;SDS011;6528;48.086;16.282;2023-04-03T16:53:00;7.67;;;4.77;;
12921;SDS011;6528;48.086;16.282;2023-04-03T16:55:29;6.53;;;4.93;;
12921;SDS011;6528;48.086;16.282;2023-04-03T16:57:56;6.50;;;4.80;;
12921;SDS011;6528;48.086;16.282;2023-04-03T17:00:22;7.97;;;4.37;;
12921;SDS011;6528;48.086;16.282;2023-04-03T17:02:49;6.57;;;4.43;;
12921;SDS011;6528;48.086;16.282;2023-04-03T17:05:16;6.30;;;3.73;;